createdAt,value
2019-05-11T00:01:00.195Z,7.20
2019-05-11T00:03:31.502Z,6.40
2019-05-11T00:06:02.764Z,6.67
2019-05-11T00:08:34.209Z,6.47
2019-05-11T00:11:05.642Z,6.37
2019-05-11T00:13:36.880Z,7.22
2019-05-11T00:16:08.210Z,7.40
2019-05-11T00:18:39.513Z,6.90
2019-05-11T00:21:10.774Z,7.58
2019-05-11T00:23:42.018Z,8.13
2019-05-11T00:26:13.474Z,8.05
2019-05-11T00:28:44.782Z,7.95
2019-05-11T00:31:16.124Z,8.33
2019-05-11T00:33:47.355Z,9.15
2019-05-11T00:36:19.942Z,8.15
2019-05-11T00:38:53.667Z,8.45
2019-05-11T00:41:25.065Z,6.87
2019-05-11T00:43:56.300Z,7.65
2019-05-11T00:46:27.693Z,6.92
2019-05-11T00:48:59.056Z,8.55
2019-05-11T00:51:30.474Z,7.00
2019-05-11T00:54:01.762Z,7.83
2019-05-11T00:56:33.026Z,7.03
2019-05-11T00:59:19.855Z,5.92
2019-05-11T01:01:38.455Z,6.55
2019-05-11T01:04:09.695Z,7.58
2019-05-11T01:06:41.046Z,8.08
2019-05-11T01:09:12.587Z,7.22
2019-05-11T01:11:43.892Z,8.08
2019-05-11T01:14:15.166Z,7.85
2019-05-11T01:16:46.655Z,7.90
2019-05-11T01:19:17.911Z,7.90
2019-05-11T01:21:49.147Z,8.28
2019-05-11T01:24:21.640Z,7.33
2019-05-11T01:26:52.877Z,9.20
2019-05-11T01:29:24.211Z,8.78
2019-05-11T01:31:55.486Z,9.23
2019-05-11T01:34:27.677Z,8.33
2019-05-11T01:36:58.993Z,9.55
2019-05-11T01:39:30.247Z,9.28
2019-05-11T01:42:01.494Z,7.83
2019-05-11T01:44:32.758Z,8.83
2019-05-11T01:47:04.016Z,10.80
2019-05-11T01:49:35.557Z,9.88
2019-05-11T01:52:09.145Z,11.28
2019-05-11T01:54:40.606Z,10.80
2019-05-11T01:57:11.892Z,11.22
2019-05-11T01:59:43.333Z,11.57
2019-05-11T02:02:14.738Z,9.50
2019-05-11T02:04:46.097Z,8.28
2019-05-11T02:07:17.401Z,10.98
2019-05-11T02:09:48.829Z,11.75
2019-05-11T02:12:20.201Z,11.90
2019-05-11T02:14:51.477Z,10.85
2019-05-11T02:17:22.918Z,11.00
2019-05-11T02:19:54.236Z,10.23
2019-05-11T02:22:25.636Z,11.95
2019-05-11T02:24:56.924Z,12.82
2019-05-11T02:27:28.309Z,13.05
2019-05-11T02:29:59.723Z,13.40
2019-05-11T02:32:31.099Z,14.83
2019-05-11T02:35:02.705Z,12.63
2019-05-11T02:37:34.110Z,14.25
2019-05-11T02:40:07.310Z,13.70
2019-05-11T02:42:38.785Z,14.98
2019-05-11T02:45:10.875Z,15.45
2019-05-11T02:47:42.325Z,11.03
2019-05-11T02:50:14.384Z,13.50
2019-05-11T02:52:46.807Z,14.38
2019-05-11T02:55:18.138Z,14.25
2019-05-11T02:57:49.603Z,14.25
2019-05-11T03:00:42.771Z,12.93
2019-05-11T03:03:14.384Z,14.38
2019-05-11T03:05:45.666Z,15.28
2019-05-11T03:08:16.998Z,15.55
2019-05-11T03:10:48.529Z,15.13
2019-05-11T03:13:20.223Z,15.72
2019-05-11T03:15:51.656Z,16.45
2019-05-11T03:18:23.030Z,15.83
2019-05-11T03:20:54.412Z,15.53
2019-05-11T03:23:25.799Z,15.98
2019-05-11T03:25:57.077Z,16.60
2019-05-11T03:28:28.372Z,15.43
2019-05-11T03:30:59.709Z,12.70
2019-05-11T03:33:32.045Z,15.28
2019-05-11T03:36:03.336Z,16.55
2019-05-11T03:38:34.762Z,15.85
2019-05-11T03:41:06.176Z,16.55
2019-05-11T03:43:37.477Z,15.25
2019-05-11T03:46:08.843Z,16.12
2019-05-11T03:48:40.124Z,15.13
2019-05-11T03:51:11.500Z,16.07
2019-05-11T03:53:43.034Z,15.90
2019-05-11T03:56:14.307Z,16.23
2019-05-11T03:58:45.550Z,12.43
2019-05-11T04:01:17.173Z,16.82
2019-05-11T04:03:48.622Z,16.25
2019-05-11T04:06:20.025Z,16.82
2019-05-11T04:08:52.196Z,16.00
2019-05-11T04:11:23.573Z,17.02
2019-05-11T04:13:55.319Z,18.67
2019-05-11T04:16:27.576Z,17.70
2019-05-11T04:18:59.028Z,18.80
2019-05-11T04:21:30.292Z,17.32
2019-05-11T04:24:01.694Z,18.00
2019-05-11T04:26:32.986Z,18.42
2019-05-11T04:29:04.536Z,17.17
2019-05-11T04:31:36.028Z,18.12
2019-05-11T04:34:07.480Z,19.48
2019-05-11T04:36:38.786Z,15.58
2019-05-11T04:39:10.186Z,17.32
2019-05-11T04:41:41.678Z,17.05
2019-05-11T04:44:13.024Z,17.62
2019-05-11T04:46:44.564Z,18.17
2019-05-11T04:49:16.205Z,18.52
2019-05-11T04:51:47.703Z,18.62
2019-05-11T04:54:19.022Z,18.70
2019-05-11T04:56:50.379Z,19.48
2019-05-11T04:59:21.689Z,17.60
2019-05-11T05:01:53.011Z,19.27
2019-05-11T05:04:24.697Z,18.90
2019-05-11T05:07:00.093Z,18.98
2019-05-11T05:09:36.015Z,15.10
2019-05-11T05:12:08.562Z,17.90
2019-05-11T05:14:37.353Z,22.37
2019-05-11T05:17:11.693Z,18.82
2019-05-11T05:19:44.780Z,18.48
2019-05-11T05:22:16.185Z,19.30
2019-05-11T05:24:47.533Z,18.75
2019-05-11T05:27:19.041Z,18.02
2019-05-11T05:29:50.335Z,18.73
2019-05-11T05:32:21.755Z,18.80
2019-05-11T05:34:53.109Z,19.23
2019-05-11T05:37:24.675Z,17.87
2019-05-11T05:40:02.353Z,19.55
2019-05-11T05:42:34.311Z,17.17
2019-05-11T05:45:07.611Z,13.78
2019-05-11T05:47:39.113Z,10.60
2019-05-11T05:50:11.683Z,8.63
2019-05-11T05:52:43.307Z,6.95
2019-05-11T05:55:14.864Z,6.42
2019-05-11T05:57:46.213Z,6.37
2019-05-11T06:00:17.714Z,5.75
2019-05-11T06:02:52.726Z,4.03
2019-05-11T06:05:24.489Z,3.20
2019-05-11T06:07:56.998Z,2.25
2019-05-11T06:10:28.562Z,2.15
2019-05-11T06:13:01.780Z,2.00
2019-05-11T06:15:33.274Z,1.75
2019-05-11T06:18:06.768Z,1.60
2019-05-11T06:20:38.603Z,1.40
2019-05-11T06:23:10.126Z,1.92
2019-05-11T06:25:41.400Z,1.50
2019-05-11T06:28:12.831Z,1.67
2019-05-11T06:30:44.391Z,1.50
2019-05-11T06:33:20.184Z,1.52
2019-05-11T06:35:55.851Z,1.50
2019-05-11T06:38:27.102Z,1.90
2019-05-11T06:40:59.285Z,1.60
2019-05-11T06:43:30.681Z,1.50
2019-05-11T06:46:04.271Z,1.52
2019-05-11T06:48:35.661Z,1.47
2019-05-11T06:51:07.053Z,1.60
2019-05-11T06:53:39.404Z,1.67
2019-05-11T06:56:10.786Z,1.70
2019-05-11T06:58:45.348Z,2.10
2019-05-11T07:01:15.377Z,1.80
2019-05-11T07:03:46.812Z,1.65
2019-05-11T07:06:18.229Z,1.55
2019-05-11T07:08:49.618Z,1.50
2019-05-11T07:11:21.016Z,1.40
2019-05-11T07:13:54.452Z,1.40
2019-05-11T07:16:27.857Z,1.45
2019-05-11T07:18:59.450Z,1.45
2019-05-11T07:21:31.004Z,1.60
2019-05-11T07:24:02.448Z,1.50
2019-05-11T07:26:33.800Z,1.60
2019-05-11T07:29:05.344Z,1.40
2019-05-11T07:31:36.701Z,1.42
2019-05-11T07:34:08.263Z,1.40
2019-05-11T07:36:39.640Z,1.25
2019-05-11T07:39:12.035Z,1.10
2019-05-11T07:41:43.989Z,1.30
2019-05-11T07:44:15.547Z,1.30
2019-05-11T07:46:48.326Z,1.47
2019-05-11T07:49:23.452Z,1.50
2019-05-11T07:51:53.916Z,1.40
2019-05-11T07:54:25.142Z,1.12
2019-05-11T07:56:58.421Z,1.30
2019-05-11T07:59:29.594Z,1.30
2019-05-11T08:02:00.890Z,1.15
2019-05-11T08:04:38.080Z,1.07
2019-05-11T08:07:09.786Z,1.30
2019-05-11T08:09:41.014Z,1.40
2019-05-11T08:12:12.270Z,1.17
2019-05-11T08:14:56.413Z,1.30
2019-05-11T08:17:18.657Z,1.22
2019-05-11T08:19:49.689Z,1.45
2019-05-11T08:22:22.991Z,1.62
2019-05-11T08:24:54.020Z,1.20
2019-05-11T08:27:25.349Z,1.40
2019-05-11T08:29:57.979Z,1.20
2019-05-11T08:32:29.424Z,1.00
2019-05-11T08:35:00.651Z,1.20
2019-05-11T08:37:31.916Z,1.17
2019-05-11T08:40:04.346Z,1.30
2019-05-11T08:42:37.844Z,1.40
2019-05-11T08:45:19.379Z,1.00
2019-05-11T08:47:42.813Z,1.00
2019-05-11T08:50:15.388Z,1.30
2019-05-11T08:52:47.953Z,1.07
2019-05-11T08:55:19.683Z,1.20
2019-05-11T08:57:50.944Z,1.27
2019-05-11T09:00:22.394Z,1.10
2019-05-11T09:02:53.651Z,0.88
2019-05-11T09:05:25.221Z,0.82
2019-05-11T09:07:57.769Z,0.90
2019-05-11T09:10:29.404Z,0.80
2019-05-11T09:13:01.489Z,1.17
2019-05-11T09:15:37.338Z,0.80
2019-05-11T09:18:08.263Z,0.85
2019-05-11T09:20:40.581Z,0.98
2019-05-11T09:23:11.906Z,1.00
2019-05-11T09:25:43.141Z,0.82
2019-05-11T09:28:14.478Z,0.80
2019-05-11T09:30:47.949Z,0.80
2019-05-11T09:33:20.799Z,1.10
2019-05-11T09:35:53.541Z,0.85
2019-05-11T09:38:24.703Z,1.00
2019-05-11T09:40:58.406Z,0.60
2019-05-11T09:43:28.997Z,0.78
2019-05-11T09:46:00.390Z,0.70
2019-05-11T09:48:31.833Z,0.47
2019-05-11T09:51:11.026Z,0.53
2019-05-11T09:54:52.374Z,0.53
2019-05-11T09:57:03.248Z,0.60
2019-05-11T09:59:34.601Z,0.50
2019-05-11T10:02:07.965Z,0.60
2019-05-11T10:04:39.230Z,0.60
2019-05-11T10:07:10.766Z,0.40
2019-05-11T10:09:42.796Z,0.50
2019-05-11T10:12:15.236Z,0.50
2019-05-11T10:14:48.566Z,0.55
2019-05-11T10:17:19.565Z,0.40
2019-05-11T10:19:51.918Z,0.50
2019-05-11T10:22:23.280Z,0.80
2019-05-11T10:24:58.063Z,0.40
2019-05-11T10:27:28.818Z,0.60
2019-05-11T10:30:00.156Z,0.57
2019-05-11T10:32:31.549Z,0.62
2019-05-11T10:35:03.080Z,0.50
2019-05-11T10:37:34.451Z,0.50
2019-05-11T10:40:09.346Z,0.68
2019-05-11T10:42:42.246Z,0.50
2019-05-11T10:45:14.542Z,0.45
2019-05-11T10:47:45.931Z,0.80
2019-05-11T10:50:18.705Z,0.82
2019-05-11T10:52:51.473Z,0.50
2019-05-11T10:55:22.849Z,0.57
2019-05-11T10:57:54.360Z,0.57
2019-05-11T11:00:28.113Z,0.60
2019-05-11T11:03:00.670Z,0.80
2019-05-11T11:05:32.299Z,0.80
2019-05-11T11:08:05.252Z,0.70
2019-05-11T11:10:37.904Z,0.60
2019-05-11T11:13:09.671Z,0.50
2019-05-11T11:15:44.383Z,0.65
2019-05-11T11:18:18.919Z,0.53
2019-05-11T11:20:50.525Z,0.40
2019-05-11T11:23:23.583Z,0.37
2019-05-11T11:25:54.974Z,0.40
2019-05-11T11:28:27.999Z,0.40
2019-05-11T11:30:59.433Z,0.30
2019-05-11T11:33:32.539Z,0.45
2019-05-11T11:36:03.888Z,0.40
2019-05-11T11:38:37.607Z,0.50
2019-05-11T11:41:09.273Z,0.57
2019-05-11T11:43:40.731Z,0.30
2019-05-11T11:46:13.554Z,1.32
2019-05-11T11:49:01.650Z,0.50
2019-05-11T11:51:33.056Z,0.50
2019-05-11T11:54:06.102Z,0.50
2019-05-11T11:56:38.124Z,0.50
2019-05-11T11:59:09.574Z,0.57
2019-05-11T12:01:40.909Z,0.40
2019-05-11T12:04:12.438Z,0.50
2019-05-11T12:06:43.772Z,0.40
2019-05-11T12:09:15.271Z,0.98
2019-05-11T12:11:48.461Z,0.88
2019-05-11T12:14:19.711Z,0.53
2019-05-11T12:17:04.086Z,0.30
2019-05-11T12:19:24.060Z,0.40
2019-05-11T12:21:57.426Z,0.40
2019-05-11T12:24:29.337Z,0.40
2019-05-11T12:27:00.712Z,0.42
2019-05-11T12:29:32.804Z,0.40
2019-05-11T12:32:08.020Z,0.50
2019-05-11T12:34:38.971Z,0.40
2019-05-11T12:37:10.342Z,0.50
2019-05-11T12:39:42.675Z,0.50
2019-05-11T12:42:14.014Z,0.65
2019-05-11T12:44:45.278Z,0.60
2019-05-11T12:47:22.303Z,0.70
2019-05-11T12:49:50.314Z,0.60
2019-05-11T12:52:25.234Z,1.07
2019-05-11T12:54:58.372Z,0.50
2019-05-11T12:57:29.882Z,0.80
2019-05-11T13:00:01.498Z,0.72
2019-05-11T13:02:33.575Z,0.60
2019-05-11T13:05:08.743Z,0.60
2019-05-11T13:07:40.837Z,0.80
2019-05-11T13:10:12.504Z,0.65
2019-05-11T13:12:43.854Z,0.70
2019-05-11T13:15:17.546Z,0.70
2019-05-11T13:17:49.375Z,0.85
2019-05-11T13:20:20.765Z,0.70
2019-05-11T13:22:52.245Z,0.80
2019-05-11T13:25:23.701Z,1.10
2019-05-11T13:27:55.062Z,1.10
2019-05-11T13:30:27.984Z,0.70
2019-05-11T13:33:00.642Z,0.90
2019-05-11T13:35:32.060Z,0.88
2019-05-11T13:38:03.476Z,1.00
2019-05-11T13:40:35.098Z,0.90
2019-05-11T13:43:08.353Z,1.20
2019-05-11T13:45:39.488Z,1.50
2019-05-11T13:48:11.052Z,1.30
2019-05-11T13:50:42.420Z,1.42
2019-05-11T13:53:14.088Z,1.20
2019-05-11T13:55:48.090Z,1.37
2019-05-11T13:58:20.178Z,1.72
2019-05-11T14:00:51.816Z,1.60
2019-05-11T14:03:23.357Z,1.37
2019-05-11T14:05:58.180Z,1.62
2019-05-11T14:08:29.957Z,1.50
2019-05-11T14:11:01.539Z,1.35
2019-05-11T14:13:33.866Z,1.20
2019-05-11T14:16:07.965Z,1.52
2019-05-11T14:18:39.763Z,1.30
2019-05-11T14:21:11.422Z,1.22
2019-05-11T14:23:44.969Z,1.30
2019-05-11T14:26:18.438Z,1.20
2019-05-11T14:28:49.511Z,1.45
2019-05-11T14:31:21.460Z,1.30
2019-05-11T14:33:52.842Z,1.17
2019-05-11T14:36:24.129Z,1.20
2019-05-11T14:38:57.706Z,1.32
2019-05-11T14:41:28.864Z,1.45
2019-05-11T14:44:00.200Z,1.30
2019-05-11T14:46:31.442Z,1.10
2019-05-11T14:49:02.956Z,1.70
2019-05-11T14:51:34.343Z,1.15
2019-05-11T14:54:08.149Z,1.35
2019-05-11T14:56:40.004Z,1.50
2019-05-11T14:59:11.325Z,1.40
2019-05-11T15:01:42.795Z,1.60
2019-05-11T15:04:14.243Z,1.30
2019-05-11T15:06:45.702Z,1.95
2019-05-11T15:09:21.788Z,1.30
2019-05-11T15:11:53.476Z,1.30
2019-05-11T15:14:25.169Z,1.10
2019-05-11T15:16:57.652Z,1.10
2019-05-11T15:19:29.058Z,1.17
2019-05-11T15:22:00.952Z,1.00
2019-05-11T15:24:32.463Z,1.30
2019-05-11T15:27:03.899Z,1.20
2019-05-11T15:29:35.213Z,1.17
2019-05-11T15:32:08.441Z,1.25
2019-05-11T15:34:39.785Z,1.70
2019-05-11T15:37:11.261Z,1.50
2019-05-11T15:39:42.585Z,1.25
2019-05-11T15:42:17.565Z,1.40
2019-05-11T15:44:48.404Z,1.12
2019-05-11T15:47:19.889Z,1.25
2019-05-11T15:49:51.332Z,1.15
2019-05-11T15:52:22.809Z,3.15
2019-05-11T15:54:54.239Z,1.30
2019-05-11T15:57:25.521Z,1.12
2019-05-11T15:59:58.366Z,2.00
2019-05-11T16:02:29.855Z,1.82
2019-05-11T16:05:01.253Z,1.25
2019-05-11T16:07:32.865Z,1.25
2019-05-11T16:10:11.627Z,1.27
2019-05-11T16:12:43.048Z,1.10
2019-05-11T16:15:14.559Z,1.20
2019-05-11T16:17:48.414Z,1.02
2019-05-11T16:20:20.242Z,1.35
2019-05-11T16:22:51.550Z,1.10
2019-05-11T16:25:27.529Z,1.20
2019-05-11T16:28:00.612Z,1.22
2019-05-11T16:30:37.887Z,1.05
2019-05-11T16:33:09.611Z,1.40
2019-05-11T16:35:41.210Z,1.75
2019-05-11T16:38:12.657Z,1.70
2019-05-11T16:40:44.159Z,1.32
2019-05-11T16:43:19.263Z,1.70
2019-05-11T16:45:51.486Z,2.00
2019-05-11T16:48:22.722Z,2.00
2019-05-11T16:50:54.887Z,3.52
2019-05-11T16:53:28.293Z,1.50
2019-05-11T16:56:01.391Z,1.70
2019-05-11T16:58:32.697Z,1.80
2019-05-11T17:01:04.325Z,1.90
2019-05-11T17:03:38.242Z,2.47
2019-05-11T17:06:09.161Z,2.27
2019-05-11T17:08:40.420Z,2.37
2019-05-11T17:11:11.774Z,3.60
2019-05-11T17:13:43.065Z,2.02
2019-05-11T17:16:17.939Z,2.50
2019-05-11T17:18:49.092Z,2.42
2019-05-11T17:21:20.471Z,2.30
2019-05-11T17:23:52.094Z,2.05
2019-05-11T17:26:23.839Z,2.42
2019-05-11T17:28:55.368Z,2.40
2019-05-11T17:31:26.790Z,2.67
2019-05-11T17:33:58.234Z,2.15
2019-05-11T17:36:29.772Z,2.60
2019-05-11T17:39:01.141Z,2.30
2019-05-11T17:41:33.877Z,1.90
2019-05-11T17:44:07.820Z,3.72
2019-05-11T17:46:38.734Z,2.42
2019-05-11T17:49:10.345Z,2.12
2019-05-11T17:51:41.730Z,2.70
2019-05-11T17:54:13.460Z,2.90
2019-05-11T17:56:44.765Z,2.92
2019-05-11T17:59:16.169Z,3.10
2019-05-11T18:01:47.875Z,2.85
2019-05-11T18:04:19.365Z,2.98
2019-05-11T18:06:50.691Z,3.10
2019-05-11T18:09:21.989Z,3.45
2019-05-11T18:11:53.543Z,3.40
2019-05-11T18:14:24.787Z,3.22
2019-05-11T18:16:58.811Z,3.22
2019-05-11T18:19:29.242Z,3.20
2019-05-11T18:22:01.930Z,3.17
2019-05-11T18:24:33.362Z,3.22
2019-05-11T18:27:04.762Z,3.08
2019-05-11T18:29:38.054Z,3.40
2019-05-11T18:32:09.587Z,3.70
2019-05-11T18:34:41.101Z,4.20
2019-05-11T18:37:12.555Z,4.12
2019-05-11T18:39:43.985Z,5.20
2019-05-11T18:42:15.448Z,6.20
2019-05-11T18:44:48.362Z,5.08
2019-05-11T18:47:19.782Z,4.92
2019-05-11T18:49:51.180Z,5.85
2019-05-11T18:52:22.626Z,5.75
2019-05-11T18:54:53.862Z,6.20
2019-05-11T18:57:27.766Z,6.90
2019-05-11T18:59:59.061Z,7.00
2019-05-11T19:02:32.174Z,7.87
2019-05-11T19:05:06.101Z,8.10
2019-05-11T19:07:38.760Z,8.68
2019-05-11T19:10:10.971Z,8.83
2019-05-11T19:12:44.884Z,9.45
2019-05-11T19:15:18.768Z,9.88
2019-05-11T19:17:49.638Z,8.15
2019-05-11T19:20:23.239Z,6.65
2019-05-11T19:23:01.580Z,7.83
2019-05-11T19:25:33.012Z,7.55
2019-05-11T19:28:04.361Z,8.50
2019-05-11T19:30:38.155Z,8.68
2019-05-11T19:33:11.116Z,8.95
2019-05-11T19:35:43.295Z,8.50
2019-05-11T19:38:15.769Z,9.25
2019-05-11T19:40:48.460Z,10.28
2019-05-11T19:43:27.650Z,9.45
2019-05-11T19:45:58.896Z,10.50
2019-05-11T19:48:30.227Z,10.80
2019-05-11T19:51:07.727Z,10.93
2019-05-11T19:53:34.657Z,11.30
2019-05-11T19:56:07.807Z,11.12
2019-05-11T19:58:39.258Z,12.37
2019-05-11T20:01:10.570Z,11.75
2019-05-11T20:03:42.047Z,11.63
2019-05-11T20:06:13.317Z,11.50
2019-05-11T20:08:44.641Z,10.53
2019-05-11T20:11:18.499Z,9.68
2019-05-11T20:13:49.096Z,10.40
2019-05-11T20:16:20.686Z,8.65
2019-05-11T20:18:52.058Z,9.03
2019-05-11T20:21:23.446Z,9.80
2019-05-11T20:23:55.115Z,9.15
2019-05-11T20:26:28.629Z,9.88
2019-05-11T20:28:59.948Z,10.48
2019-05-11T20:31:31.472Z,9.78
2019-05-11T20:34:05.808Z,11.12
2019-05-11T20:36:37.278Z,10.48
2019-05-11T20:39:08.657Z,10.88
2019-05-11T20:41:40.100Z,9.85
2019-05-11T20:44:11.424Z,8.68
2019-05-11T20:46:42.802Z,7.70
2019-05-11T20:49:14.145Z,7.17
2019-05-11T20:51:45.568Z,7.05
2019-05-11T20:54:17.646Z,6.85
2019-05-11T20:56:49.545Z,6.67
2019-05-11T20:59:20.801Z,7.55
2019-05-11T21:01:52.160Z,7.60
2019-05-11T21:04:23.420Z,7.83
2019-05-11T21:06:54.855Z,7.78
2019-05-11T21:09:26.108Z,7.58
2019-05-11T21:11:58.915Z,7.12
2019-05-11T21:14:30.540Z,8.70
2019-05-11T21:17:01.823Z,8.53
2019-05-11T21:19:33.119Z,8.28
2019-05-11T21:22:04.605Z,8.35
2019-05-11T21:24:35.981Z,8.28
2019-05-11T21:27:07.576Z,8.88
2019-05-11T21:29:38.897Z,8.83
2019-05-11T21:32:10.332Z,8.58
2019-05-11T21:34:41.551Z,9.40
2019-05-11T21:37:13.032Z,9.23
2019-05-11T21:39:44.266Z,9.60
2019-05-11T21:42:18.028Z,9.58
2019-05-11T21:44:48.722Z,9.93
2019-05-11T21:47:19.987Z,9.40
2019-05-11T21:49:51.416Z,8.23
2019-05-11T21:52:22.674Z,8.95
2019-05-11T21:54:53.969Z,8.28
2019-05-11T21:57:27.811Z,7.92
2019-05-11T22:00:00.698Z,7.85
2019-05-11T22:02:33.614Z,7.92
2019-05-11T22:05:06.374Z,7.10
2019-05-11T22:07:38.955Z,7.60
2019-05-11T22:10:11.675Z,7.37
2019-05-11T22:12:42.974Z,7.67
2019-05-11T22:15:15.497Z,7.87
2019-05-11T22:17:48.064Z,7.78
2019-05-11T22:20:19.480Z,7.20
2019-05-11T22:22:50.810Z,7.40
2019-05-11T22:25:22.167Z,7.45
2019-05-11T22:27:53.679Z,7.12
2019-05-11T22:30:24.979Z,7.28
2019-05-11T22:32:58.144Z,7.83
2019-05-11T22:35:29.307Z,6.95
2019-05-11T22:38:00.635Z,7.60
2019-05-11T22:40:32.327Z,7.10
2019-05-11T22:43:03.819Z,7.53
2019-05-11T22:45:35.121Z,7.78
2019-05-11T22:48:07.946Z,7.42
2019-05-11T22:50:39.430Z,7.53
2019-05-11T22:53:11.561Z,7.40
2019-05-11T22:55:43.155Z,6.37
2019-05-11T22:58:14.557Z,7.75
2019-05-11T23:00:46.595Z,7.60
2019-05-11T23:03:19.169Z,7.97
2019-05-11T23:05:51.159Z,8.68
2019-05-11T23:08:22.476Z,8.28
2019-05-11T23:10:53.718Z,8.08
2019-05-11T23:13:24.938Z,8.88
2019-05-11T23:15:58.274Z,9.68
2019-05-11T23:18:29.133Z,9.05
2019-05-11T23:21:00.371Z,9.88
2019-05-11T23:23:31.622Z,8.70
2019-05-11T23:26:02.997Z,8.83
2019-05-11T23:28:34.207Z,9.23
2019-05-11T23:31:05.775Z,10.20
2019-05-11T23:33:38.465Z,9.70
2019-05-11T23:36:10.013Z,9.38
2019-05-11T23:38:41.438Z,9.75
2019-05-11T23:41:24.214Z,9.90
2019-05-11T23:43:47.737Z,8.80
2019-05-11T23:46:19.110Z,8.40
2019-05-11T23:48:51.427Z,9.40
2019-05-11T23:51:22.754Z,9.53
2019-05-11T23:53:54.208Z,9.35
2019-05-11T23:56:27.994Z,8.70
2019-05-11T23:59:08.077Z,9.63
